sensor_id;sensor_type;location;lat;lon;timestamp;P1;durP1;ratioP1;P2;durP2;ratioP2
10493;SDS011;5294;49.410;8.698;2023-01-29T00:01:33;5.43;;;5.03;;
10493;SDS011;5294;49.410;8.698;2023-01-29T00:04:01;5.23;;;4.73;;
10493;SDS011;5294;49.410;8.698;2023-01-29T00:06:30;4.63;;;4.33;;
10493;SDS011;5294;49.410;8.698;2023-01-29T00:08:58;4.73;;;4.33;;
10493;SDS011;5294;49.410;8.698;2023-01-29T00:11:24;5.10;;;4.60;;
10493;SDS011;5294;49.410;8.698;2023-01-29T00:13:53;4.70;;;4.30;;
10493;SDS011;5294;49.410;8.698;2023-01-29T00:16:19;4.70;;;4.30;;
10493;SDS011;5294;49.410;8.698;2023-01-29T00:18:45;4.77;;;4.47;;
10493;SDS011;5294;49.410;8.698;2023-01-29T00:21:12;5.37;;;4.97;;
10493;SDS011;5294;49.410;8.698;2023-01-29T00:23:41;4.90;;;4.50;;
10493;SDS011;5294;49.410;8.698;2023-01-29T00:26:10;4.80;;;4.40;;
10493;SDS011;5294;49.410;8.698;2023-01-29T00:28:41;4.70;;;4.40;;
10493;SDS011;5294;49.410;8.698;2023-01-29T00:31:08;4.73;;;4.33;;
10493;SDS011;5294;49.410;8.698;2023-01-29T00:33:34;4.83;;;4.53;;
10493;SDS011;5294;49.410;8.698;2023-01-29T00:36:03;5.00;;;4.60;;
10493;SDS011;5294;49.410;8.698;2023-01-29T00:38:30;4.70;;;4.40;;
10493;SDS011;5294;49.410;8.698;2023-01-29T00:41:11;5.20;;;4.80;;
10493;SDS011;5294;49.410;8.698;2023-01-29T00:43:56;4.60;;;4.30;;
10493;SDS011;5294;49.410;8.698;2023-01-29T00:46:40;5.03;;;4.63;;
10493;SDS011;5294;49.410;8.698;2023-01-29T00:49:09;5.03;;;4.53;;
10493;SDS011;5294;49.410;8.698;2023-01-29T00:51:36;4.73;;;4.43;;
10493;SDS011;5294;49.410;8.698;2023-01-29T00:54:02;5.00;;;4.60;;
10493;SDS011;5294;49.410;8.698;2023-01-29T00:56:31;4.57;;;4.27;;
10493;SDS011;5294;49.410;8.698;2023-01-29T00:58:57;4.80;;;4.50;;
10493;SDS011;5294;49.410;8.698;2023-01-29T01:01:23;4.90;;;4.47;;
10493;SDS011;5294;49.410;8.698;2023-01-29T01:04:08;4.77;;;4.47;;
10493;SDS011;5294;49.410;8.698;2023-01-29T01:06:37;5.40;;;5.00;;
10493;SDS011;5294;49.410;8.698;2023-01-29T01:09:04;5.10;;;4.70;;
10493;SDS011;5294;49.410;8.698;2023-01-29T01:11:49;4.80;;;4.43;;
10493;SDS011;5294;49.410;8.698;2023-01-29T01:14:15;4.50;;;4.20;;
10493;SDS011;5294;49.410;8.698;2023-01-29T01:16:41;4.97;;;4.47;;
10493;SDS011;5294;49.410;8.698;2023-01-29T01:19:07;5.40;;;4.93;;
10493;SDS011;5294;49.410;8.698;2023-01-29T01:21:33;5.10;;;4.70;;
10493;SDS011;5294;49.410;8.698;2023-01-29T01:23:59;4.73;;;4.43;;
10493;SDS011;5294;49.410;8.698;2023-01-29T01:26:29;5.60;;;5.20;;
10493;SDS011;5294;49.410;8.698;2023-01-29T01:28:55;5.27;;;4.87;;
10493;SDS011;5294;49.410;8.698;2023-01-29T01:31:21;5.00;;;4.70;;
10493;SDS011;5294;49.410;8.698;2023-01-29T01:33:47;5.77;;;5.30;;
10493;SDS011;5294;49.410;8.698;2023-01-29T01:36:17;5.40;;;5.00;;
10493;SDS011;5294;49.410;8.698;2023-01-29T01:38:43;5.50;;;5.00;;
10493;SDS011;5294;49.410;8.698;2023-01-29T01:41:14;4.97;;;4.67;;
10493;SDS011;5294;49.410;8.698;2023-01-29T01:44:00;4.70;;;4.40;;
10493;SDS011;5294;49.410;8.698;2023-01-29T01:46:30;5.00;;;4.70;;
10493;SDS011;5294;49.410;8.698;2023-01-29T01:49:02;5.00;;;4.60;;
10493;SDS011;5294;49.410;8.698;2023-01-29T01:51:31;5.63;;;5.23;;
10493;SDS011;5294;49.410;8.698;2023-01-29T01:54:00;5.60;;;5.20;;
10493;SDS011;5294;49.410;8.698;2023-01-29T01:56:29;5.67;;;5.00;;
10493;SDS011;5294;49.410;8.698;2023-01-29T01:59:02;5.83;;;5.43;;
10493;SDS011;5294;49.410;8.698;2023-01-29T02:01:28;5.57;;;5.10;;
10493;SDS011;5294;49.410;8.698;2023-01-29T02:03:55;5.60;;;5.10;;
10493;SDS011;5294;49.410;8.698;2023-01-29T02:06:41;6.10;;;5.60;;
10493;SDS011;5294;49.410;8.698;2023-01-29T02:09:29;5.30;;;4.90;;
10493;SDS011;5294;49.410;8.698;2023-01-29T02:12:09;5.20;;;4.90;;
10493;SDS011;5294;49.410;8.698;2023-01-29T02:14:36;5.20;;;4.80;;
10493;SDS011;5294;49.410;8.698;2023-01-29T02:17:04;5.40;;;5.00;;
10493;SDS011;5294;49.410;8.698;2023-01-29T02:24:57;5.70;;;5.30;;
10493;SDS011;5294;49.410;8.698;2023-01-29T02:27:37;5.60;;;5.20;;
10493;SDS011;5294;49.410;8.698;2023-01-29T02:30:12;5.47;;;5.07;;
10493;SDS011;5294;49.410;8.698;2023-01-29T02:35:33;5.00;;;4.63;;
10493;SDS011;5294;49.410;8.698;2023-01-29T02:46:22;6.30;;;5.80;;
10493;SDS011;5294;49.410;8.698;2023-01-29T02:48:42;5.50;;;5.10;;
10493;SDS011;5294;49.410;8.698;2023-01-29T02:51:12;5.90;;;5.40;;
10493;SDS011;5294;49.410;8.698;2023-01-29T02:56:15;5.93;;;5.50;;
10493;SDS011;5294;49.410;8.698;2023-01-29T02:58:51;6.00;;;5.60;;
10493;SDS011;5294;49.410;8.698;2023-01-29T03:01:24;6.13;;;5.60;;
10493;SDS011;5294;49.410;8.698;2023-01-29T03:03:54;5.77;;;5.37;;
10493;SDS011;5294;49.410;8.698;2023-01-29T03:06:23;5.73;;;5.33;;
10493;SDS011;5294;49.410;8.698;2023-01-29T03:08:54;5.77;;;5.27;;
10493;SDS011;5294;49.410;8.698;2023-01-29T03:11:25;5.97;;;5.47;;
10493;SDS011;5294;49.410;8.698;2023-01-29T03:13:54;5.93;;;5.43;;
10493;SDS011;5294;49.410;8.698;2023-01-29T03:18:52;5.53;;;5.13;;
10493;SDS011;5294;49.410;8.698;2023-01-29T03:21:30;5.30;;;4.90;;
10493;SDS011;5294;49.410;8.698;2023-01-29T03:27:11;5.70;;;5.30;;
10493;SDS011;5294;49.410;8.698;2023-01-29T03:29:57;5.03;;;4.63;;
10493;SDS011;5294;49.410;8.698;2023-01-29T03:32:42;4.93;;;4.63;;
10493;SDS011;5294;49.410;8.698;2023-01-29T03:35:09;5.07;;;4.67;;
10493;SDS011;5294;49.410;8.698;2023-01-29T03:37:43;5.10;;;4.70;;
10493;SDS011;5294;49.410;8.698;2023-01-29T03:40:11;5.00;;;4.60;;
10493;SDS011;5294;49.410;8.698;2023-01-29T03:47:45;4.93;;;4.63;;
10493;SDS011;5294;49.410;8.698;2023-01-29T03:53:06;5.50;;;5.00;;
10493;SDS011;5294;49.410;8.698;2023-01-29T03:58:03;6.03;;;5.53;;
10493;SDS011;5294;49.410;8.698;2023-01-29T04:00:54;5.90;;;5.47;;
10493;SDS011;5294;49.410;8.698;2023-01-29T04:03:36;4.97;;;4.67;;
10493;SDS011;5294;49.410;8.698;2023-01-29T04:06:24;5.30;;;4.90;;
10493;SDS011;5294;49.410;8.698;2023-01-29T04:08:57;6.60;;;6.10;;
10493;SDS011;5294;49.410;8.698;2023-01-29T04:11:26;6.43;;;5.93;;
10493;SDS011;5294;49.410;8.698;2023-01-29T04:13:53;5.90;;;5.50;;
10493;SDS011;5294;49.410;8.698;2023-01-29T04:16:39;6.30;;;5.70;;
10493;SDS011;5294;49.410;8.698;2023-01-29T04:19:06;5.70;;;5.30;;
10493;SDS011;5294;49.410;8.698;2023-01-29T04:21:33;6.07;;;5.57;;
10493;SDS011;5294;49.410;8.698;2023-01-29T04:24:02;6.10;;;5.70;;
10493;SDS011;5294;49.410;8.698;2023-01-29T04:32:41;6.63;;;6.10;;
10493;SDS011;5294;49.410;8.698;2023-01-29T04:39:57;5.93;;;5.50;;
10493;SDS011;5294;49.410;8.698;2023-01-29T04:42:30;6.10;;;5.60;;
10493;SDS011;5294;49.410;8.698;2023-01-29T04:45:06;5.80;;;5.30;;
10493;SDS011;5294;49.410;8.698;2023-01-29T04:52:57;5.60;;;5.20;;
10493;SDS011;5294;49.410;8.698;2023-01-29T04:57:59;5.90;;;5.50;;
10493;SDS011;5294;49.410;8.698;2023-01-29T05:00:27;6.70;;;6.10;;
10493;SDS011;5294;49.410;8.698;2023-01-29T05:02:54;5.50;;;5.10;;
10493;SDS011;5294;49.410;8.698;2023-01-29T05:05:21;5.27;;;4.87;;
10493;SDS011;5294;49.410;8.698;2023-01-29T05:07:50;5.50;;;5.10;;
10493;SDS011;5294;49.410;8.698;2023-01-29T05:10:16;5.40;;;4.90;;
10493;SDS011;5294;49.410;8.698;2023-01-29T05:12:44;5.67;;;5.27;;
10493;SDS011;5294;49.410;8.698;2023-01-29T05:15:15;5.73;;;5.23;;
10493;SDS011;5294;49.410;8.698;2023-01-29T05:17:43;5.50;;;5.10;;
10493;SDS011;5294;49.410;8.698;2023-01-29T05:20:09;5.60;;;5.20;;
10493;SDS011;5294;49.410;8.698;2023-01-29T05:22:36;4.87;;;4.47;;
10493;SDS011;5294;49.410;8.698;2023-01-29T05:25:19;4.73;;;4.40;;
10493;SDS011;5294;49.410;8.698;2023-01-29T05:27:48;4.00;;;3.70;;
10493;SDS011;5294;49.410;8.698;2023-01-29T05:30:40;4.83;;;4.53;;
10493;SDS011;5294;49.410;8.698;2023-01-29T05:33:10;4.73;;;4.20;;
10493;SDS011;5294;49.410;8.698;2023-01-29T05:35:37;4.90;;;4.50;;
10493;SDS011;5294;49.410;8.698;2023-01-29T05:38:03;4.20;;;3.80;;
10493;SDS011;5294;49.410;8.698;2023-01-29T05:40:29;5.30;;;4.90;;
10493;SDS011;5294;49.410;8.698;2023-01-29T05:42:55;4.67;;;4.37;;
10493;SDS011;5294;49.410;8.698;2023-01-29T05:45:23;4.43;;;4.13;;
10493;SDS011;5294;49.410;8.698;2023-01-29T05:47:49;4.67;;;4.30;;
10493;SDS011;5294;49.410;8.698;2023-01-29T05:50:17;4.73;;;4.37;;
10493;SDS011;5294;49.410;8.698;2023-01-29T05:52:43;4.77;;;4.47;;
10493;SDS011;5294;49.410;8.698;2023-01-29T05:55:09;4.93;;;4.60;;
10493;SDS011;5294;49.410;8.698;2023-01-29T05:57:35;5.00;;;4.60;;
10493;SDS011;5294;49.410;8.698;2023-01-29T06:00:02;4.87;;;4.27;;
10493;SDS011;5294;49.410;8.698;2023-01-29T06:02:29;4.70;;;4.40;;
10493;SDS011;5294;49.410;8.698;2023-01-29T06:04:55;4.77;;;4.47;;
10493;SDS011;5294;49.410;8.698;2023-01-29T06:07:24;5.20;;;4.80;;
10493;SDS011;5294;49.410;8.698;2023-01-29T06:09:55;4.87;;;4.57;;
10493;SDS011;5294;49.410;8.698;2023-01-29T06:12:23;5.10;;;4.70;;
10493;SDS011;5294;49.410;8.698;2023-01-29T06:14:49;4.97;;;4.57;;
10493;SDS011;5294;49.410;8.698;2023-01-29T06:17:15;4.77;;;4.37;;
10493;SDS011;5294;49.410;8.698;2023-01-29T06:19:43;4.73;;;4.43;;
10493;SDS011;5294;49.410;8.698;2023-01-29T06:22:09;4.63;;;4.23;;
10493;SDS011;5294;49.410;8.698;2023-01-29T06:24:35;4.30;;;4.03;;
10493;SDS011;5294;49.410;8.698;2023-01-29T06:27:04;4.43;;;4.13;;
10493;SDS011;5294;49.410;8.698;2023-01-29T06:29:29;4.60;;;4.20;;
10493;SDS011;5294;49.410;8.698;2023-01-29T06:31:55;4.70;;;4.30;;
10493;SDS011;5294;49.410;8.698;2023-01-29T06:34:21;4.43;;;4.13;;
10493;SDS011;5294;49.410;8.698;2023-01-29T06:36:47;5.10;;;4.70;;
10493;SDS011;5294;49.410;8.698;2023-01-29T06:39:15;4.00;;;3.80;;
10493;SDS011;5294;49.410;8.698;2023-01-29T06:41:44;4.63;;;4.33;;
10493;SDS011;5294;49.410;8.698;2023-01-29T06:44:10;4.40;;;4.10;;
10493;SDS011;5294;49.410;8.698;2023-01-29T06:46:38;4.83;;;4.43;;
10493;SDS011;5294;49.410;8.698;2023-01-29T06:49:06;4.70;;;4.30;;
10493;SDS011;5294;49.410;8.698;2023-01-29T06:51:37;4.77;;;4.37;;
10493;SDS011;5294;49.410;8.698;2023-01-29T06:54:03;4.67;;;4.27;;
10493;SDS011;5294;49.410;8.698;2023-01-29T06:56:30;4.23;;;3.93;;
10493;SDS011;5294;49.410;8.698;2023-01-29T06:58:56;5.10;;;4.70;;
10493;SDS011;5294;49.410;8.698;2023-01-29T07:01:22;5.67;;;5.27;;
10493;SDS011;5294;49.410;8.698;2023-01-29T07:03:48;4.80;;;4.50;;
10493;SDS011;5294;49.410;8.698;2023-01-29T07:06:15;4.83;;;4.53;;
10493;SDS011;5294;49.410;8.698;2023-01-29T07:08:41;4.83;;;4.43;;
10493;SDS011;5294;49.410;8.698;2023-01-29T07:11:07;6.37;;;5.90;;
10493;SDS011;5294;49.410;8.698;2023-01-29T07:13:36;6.90;;;6.20;;
10493;SDS011;5294;49.410;8.698;2023-01-29T07:16:04;6.40;;;5.90;;
10493;SDS011;5294;49.410;8.698;2023-01-29T07:18:31;4.87;;;4.40;;
10493;SDS011;5294;49.410;8.698;2023-01-29T07:20:57;7.20;;;6.60;;
10493;SDS011;5294;49.410;8.698;2023-01-29T07:23:23;8.03;;;7.33;;
10493;SDS011;5294;49.410;8.698;2023-01-29T07:25:49;8.73;;;7.93;;
10493;SDS011;5294;49.410;8.698;2023-01-29T07:28:18;8.60;;;7.80;;
10493;SDS011;5294;49.410;8.698;2023-01-29T07:30:46;8.47;;;7.67;;
10493;SDS011;5294;49.410;8.698;2023-01-29T07:33:17;8.00;;;7.40;;
10493;SDS011;5294;49.410;8.698;2023-01-29T07:35:43;8.53;;;7.83;;
10493;SDS011;5294;49.410;8.698;2023-01-29T07:38:12;8.40;;;7.60;;
10493;SDS011;5294;49.410;8.698;2023-01-29T07:40:38;8.60;;;7.77;;
10493;SDS011;5294;49.410;8.698;2023-01-29T07:43:05;7.97;;;7.27;;
10493;SDS011;5294;49.410;8.698;2023-01-29T07:45:36;7.70;;;7.10;;
10493;SDS011;5294;49.410;8.698;2023-01-29T07:48:03;7.77;;;7.07;;
10493;SDS011;5294;49.410;8.698;2023-01-29T07:50:33;7.97;;;7.27;;
10493;SDS011;5294;49.410;8.698;2023-01-29T07:53:02;7.97;;;7.37;;
10493;SDS011;5294;49.410;8.698;2023-01-29T07:55:28;7.93;;;7.23;;
10493;SDS011;5294;49.410;8.698;2023-01-29T07:57:57;7.40;;;6.60;;
10493;SDS011;5294;49.410;8.698;2023-01-29T08:00:26;7.90;;;7.20;;
10493;SDS011;5294;49.410;8.698;2023-01-29T08:02:52;7.57;;;6.90;;
10493;SDS011;5294;49.410;8.698;2023-01-29T08:05:18;7.10;;;6.50;;
10493;SDS011;5294;49.410;8.698;2023-01-29T08:07:44;8.00;;;7.30;;
10493;SDS011;5294;49.410;8.698;2023-01-29T08:10:12;7.60;;;7.00;;
10493;SDS011;5294;49.410;8.698;2023-01-29T08:12:38;8.00;;;7.30;;
10493;SDS011;5294;49.410;8.698;2023-01-29T08:15:04;7.87;;;7.17;;
10493;SDS011;5294;49.410;8.698;2023-01-29T08:17:30;9.03;;;8.13;;
10493;SDS011;5294;49.410;8.698;2023-01-29T08:19:56;9.07;;;8.23;;
10493;SDS011;5294;49.410;8.698;2023-01-29T08:22:22;9.03;;;8.17;;
10493;SDS011;5294;49.410;8.698;2023-01-29T08:24:48;9.73;;;8.83;;
10493;SDS011;5294;49.410;8.698;2023-01-29T08:27:14;10.27;;;9.37;;
10493;SDS011;5294;49.410;8.698;2023-01-29T08:29:43;10.00;;;9.10;;
10493;SDS011;5294;49.410;8.698;2023-01-29T08:32:09;10.33;;;9.43;;
10493;SDS011;5294;49.410;8.698;2023-01-29T08:34:37;9.83;;;9.03;;
10493;SDS011;5294;49.410;8.698;2023-01-29T08:37:03;11.10;;;10.10;;
10493;SDS011;5294;49.410;8.698;2023-01-29T08:39:32;10.30;;;9.40;;
10493;SDS011;5294;49.410;8.698;2023-01-29T08:41:57;10.90;;;9.93;;
10493;SDS011;5294;49.410;8.698;2023-01-29T08:44:26;11.00;;;10.00;;
10493;SDS011;5294;49.410;8.698;2023-01-29T08:46:52;10.43;;;9.43;;
10493;SDS011;5294;49.410;8.698;2023-01-29T08:49:18;11.23;;;10.17;;
10493;SDS011;5294;49.410;8.698;2023-01-29T08:51:46;11.03;;;9.93;;
10493;SDS011;5294;49.410;8.698;2023-01-29T08:54:15;10.90;;;10.00;;
10493;SDS011;5294;49.410;8.698;2023-01-29T08:56:41;11.70;;;10.70;;
10493;SDS011;5294;49.410;8.698;2023-01-29T08:59:08;11.80;;;10.77;;
10493;SDS011;5294;49.410;8.698;2023-01-29T09:01:34;10.97;;;9.97;;
10493;SDS011;5294;49.410;8.698;2023-01-29T09:04:00;11.30;;;10.40;;
10493;SDS011;5294;49.410;8.698;2023-01-29T09:06:26;10.50;;;9.60;;
10493;SDS011;5294;49.410;8.698;2023-01-29T09:08:54;10.67;;;9.77;;
10493;SDS011;5294;49.410;8.698;2023-01-29T09:11:23;10.33;;;9.43;;
10493;SDS011;5294;49.410;8.698;2023-01-29T09:13:49;10.53;;;9.63;;
10493;SDS011;5294;49.410;8.698;2023-01-29T09:16:17;10.30;;;9.43;;
10493;SDS011;5294;49.410;8.698;2023-01-29T09:18:43;10.37;;;9.57;;
10493;SDS011;5294;49.410;8.698;2023-01-29T09:21:09;10.40;;;9.30;;
10493;SDS011;5294;49.410;8.698;2023-01-29T09:23:35;10.87;;;9.77;;
10493;SDS011;5294;49.410;8.698;2023-01-29T09:26:06;10.70;;;9.83;;
10493;SDS011;5294;49.410;8.698;2023-01-29T09:28:33;9.17;;;8.47;;
10493;SDS011;5294;49.410;8.698;2023-01-29T09:31:04;9.33;;;8.63;;
10493;SDS011;5294;49.410;8.698;2023-01-29T09:33:32;9.87;;;9.03;;
10493;SDS011;5294;49.410;8.698;2023-01-29T09:36:01;9.63;;;8.83;;
10493;SDS011;5294;49.410;8.698;2023-01-29T09:38:30;8.20;;;7.50;;
10493;SDS011;5294;49.410;8.698;2023-01-29T09:45:58;7.40;;;6.80;;
10493;SDS011;5294;49.410;8.698;2023-01-29T09:48:28;8.13;;;7.53;;
10493;SDS011;5294;49.410;8.698;2023-01-29T09:50:56;9.30;;;8.50;;
10493;SDS011;5294;49.410;8.698;2023-01-29T09:53:25;9.93;;;9.10;;
10493;SDS011;5294;49.410;8.698;2023-01-29T09:55:58;10.30;;;9.47;;
10493;SDS011;5294;49.410;8.698;2023-01-29T09:58:31;10.40;;;9.50;;
10493;SDS011;5294;49.410;8.698;2023-01-29T10:01:17;9.23;;;8.53;;
10493;SDS011;5294;49.410;8.698;2023-01-29T10:11:45;8.60;;;7.90;;
10493;SDS011;5294;49.410;8.698;2023-01-29T10:27:12;10.37;;;9.37;;
10493;SDS011;5294;49.410;8.698;2023-01-29T10:29:40;11.37;;;10.37;;
10493;SDS011;5294;49.410;8.698;2023-01-29T10:32:13;11.17;;;10.20;;
10493;SDS011;5294;49.410;8.698;2023-01-29T10:34:43;10.90;;;10.00;;
10493;SDS011;5294;49.410;8.698;2023-01-29T10:37:18;12.10;;;11.00;;
10493;SDS011;5294;49.410;8.698;2023-01-29T10:39:50;11.87;;;10.83;;
10493;SDS011;5294;49.410;8.698;2023-01-29T10:42:19;11.60;;;10.60;;
10493;SDS011;5294;49.410;8.698;2023-01-29T10:55:49;11.77;;;10.77;;
10493;SDS011;5294;49.410;8.698;2023-01-29T11:00:23;13.30;;;12.00;;
10493;SDS011;5294;49.410;8.698;2023-01-29T11:02:50;12.10;;;11.00;;
10493;SDS011;5294;49.410;8.698;2023-01-29T11:07:45;12.00;;;11.00;;
10493;SDS011;5294;49.410;8.698;2023-01-29T11:10:16;12.70;;;11.50;;
10493;SDS011;5294;49.410;8.698;2023-01-29T11:12:47;12.10;;;11.10;;
10493;SDS011;5294;49.410;8.698;2023-01-29T11:20:27;13.40;;;12.17;;
10493;SDS011;5294;49.410;8.698;2023-01-29T11:22:56;12.40;;;11.30;;
10493;SDS011;5294;49.410;8.698;2023-01-29T11:25:23;13.13;;;12.10;;
10493;SDS011;5294;49.410;8.698;2023-01-29T11:27:58;13.40;;;12.20;;
10493;SDS011;5294;49.410;8.698;2023-01-29T11:30:29;12.77;;;11.67;;
10493;SDS011;5294;49.410;8.698;2023-01-29T11:35:33;12.10;;;11.10;;
10493;SDS011;5294;49.410;8.698;2023-01-29T11:38:33;12.80;;;11.50;;
10493;SDS011;5294;49.410;8.698;2023-01-29T11:41:03;13.90;;;12.20;;
10493;SDS011;5294;49.410;8.698;2023-01-29T11:43:30;12.70;;;11.40;;
10493;SDS011;5294;49.410;8.698;2023-01-29T11:45:57;13.23;;;12.03;;
10493;SDS011;5294;49.410;8.698;2023-01-29T11:48:29;13.07;;;11.97;;
10493;SDS011;5294;49.410;8.698;2023-01-29T11:50:58;13.20;;;12.00;;
10493;SDS011;5294;49.410;8.698;2023-01-29T11:55:55;12.47;;;11.40;;
10493;SDS011;5294;49.410;8.698;2023-01-29T11:58:28;12.63;;;11.53;;
10493;SDS011;5294;49.410;8.698;2023-01-29T12:00:55;14.40;;;13.00;;
10493;SDS011;5294;49.410;8.698;2023-01-29T12:03:33;14.00;;;12.80;;
10493;SDS011;5294;49.410;8.698;2023-01-29T12:06:05;13.60;;;12.30;;
10493;SDS011;5294;49.410;8.698;2023-01-29T12:08:36;13.77;;;12.50;;
10493;SDS011;5294;49.410;8.698;2023-01-29T12:11:23;13.30;;;12.10;;
10493;SDS011;5294;49.410;8.698;2023-01-29T12:14:04;13.10;;;11.90;;
10493;SDS011;5294;49.410;8.698;2023-01-29T12:21:49;14.87;;;13.57;;
10493;SDS011;5294;49.410;8.698;2023-01-29T12:24:22;14.27;;;13.07;;
10493;SDS011;5294;49.410;8.698;2023-01-29T12:26:52;14.40;;;13.10;;
10493;SDS011;5294;49.410;8.698;2023-01-29T12:34:54;14.37;;;13.03;;
10493;SDS011;5294;49.410;8.698;2023-01-29T12:37:23;14.37;;;13.07;;
10493;SDS011;5294;49.410;8.698;2023-01-29T12:39:52;14.77;;;13.37;;
10493;SDS011;5294;49.410;8.698;2023-01-29T12:42:21;14.90;;;13.67;;
10493;SDS011;5294;49.410;8.698;2023-01-29T12:44:58;15.43;;;13.83;;
10493;SDS011;5294;49.410;8.698;2023-01-29T12:47:32;15.17;;;13.77;;
10493;SDS011;5294;49.410;8.698;2023-01-29T12:50:02;14.90;;;13.43;;
10493;SDS011;5294;49.410;8.698;2023-01-29T12:52:35;16.27;;;14.67;;
10493;SDS011;5294;49.410;8.698;2023-01-29T12:55:13;15.13;;;13.53;;
10493;SDS011;5294;49.410;8.698;2023-01-29T13:00:11;15.40;;;14.00;;
10493;SDS011;5294;49.410;8.698;2023-01-29T13:05:25;14.30;;;13.00;;
10493;SDS011;5294;49.410;8.698;2023-01-29T13:08:00;15.33;;;13.93;;
10493;SDS011;5294;49.410;8.698;2023-01-29T13:10:28;14.93;;;13.50;;
10493;SDS011;5294;49.410;8.698;2023-01-29T13:13:02;14.27;;;12.97;;
10493;SDS011;5294;49.410;8.698;2023-01-29T13:15:32;14.37;;;13.07;;
10493;SDS011;5294;49.410;8.698;2023-01-29T13:18:13;14.63;;;13.27;;
10493;SDS011;5294;49.410;8.698;2023-01-29T13:20:41;14.80;;;13.40;;
10493;SDS011;5294;49.410;8.698;2023-01-29T13:23:18;14.87;;;13.37;;
10493;SDS011;5294;49.410;8.698;2023-01-29T13:25:48;14.53;;;13.27;;
10493;SDS011;5294;49.410;8.698;2023-01-29T13:28:18;15.10;;;13.70;;
10493;SDS011;5294;49.410;8.698;2023-01-29T13:30:44;17.20;;;15.60;;
10493;SDS011;5294;49.410;8.698;2023-01-29T13:33:21;16.13;;;14.63;;
10493;SDS011;5294;49.410;8.698;2023-01-29T13:35:47;15.87;;;14.37;;
10493;SDS011;5294;49.410;8.698;2023-01-29T13:40:49;17.23;;;15.57;;
10493;SDS011;5294;49.410;8.698;2023-01-29T13:43:19;17.07;;;15.27;;
10493;SDS011;5294;49.410;8.698;2023-01-29T13:45:47;17.37;;;15.67;;
10493;SDS011;5294;49.410;8.698;2023-01-29T13:50:50;16.87;;;15.27;;
10493;SDS011;5294;49.410;8.698;2023-01-29T13:53:28;16.87;;;15.27;;
10493;SDS011;5294;49.410;8.698;2023-01-29T13:55:54;17.77;;;16.03;;
10493;SDS011;5294;49.410;8.698;2023-01-29T14:01:00;15.67;;;14.17;;
10493;SDS011;5294;49.410;8.698;2023-01-29T14:13:46;16.43;;;14.87;;
10493;SDS011;5294;49.410;8.698;2023-01-29T14:18:49;17.10;;;15.50;;
10493;SDS011;5294;49.410;8.698;2023-01-29T14:21:26;16.17;;;14.77;;
10493;SDS011;5294;49.410;8.698;2023-01-29T14:23:58;17.13;;;15.63;;
10493;SDS011;5294;49.410;8.698;2023-01-29T14:36:40;15.57;;;14.17;;
10493;SDS011;5294;49.410;8.698;2023-01-29T14:41:48;16.03;;;14.53;;
10493;SDS011;5294;49.410;8.698;2023-01-29T14:46:59;14.27;;;12.97;;
10493;SDS011;5294;49.410;8.698;2023-01-29T14:52:09;13.63;;;12.43;;
10493;SDS011;5294;49.410;8.698;2023-01-29T14:54:37;14.20;;;12.90;;
10493;SDS011;5294;49.410;8.698;2023-01-29T14:57:04;13.10;;;11.90;;
10493;SDS011;5294;49.410;8.698;2023-01-29T14:59:42;12.53;;;11.43;;
10493;SDS011;5294;49.410;8.698;2023-01-29T15:04:48;14.33;;;12.93;;
10493;SDS011;5294;49.410;8.698;2023-01-29T15:07:25;13.67;;;12.47;;
10493;SDS011;5294;49.410;8.698;2023-01-29T15:22:54;15.20;;;13.70;;
10493;SDS011;5294;49.410;8.698;2023-01-29T15:25:22;14.93;;;13.53;;
10493;SDS011;5294;49.410;8.698;2023-01-29T15:27:51;15.17;;;13.77;;
10493;SDS011;5294;49.410;8.698;2023-01-29T15:30:20;14.93;;;13.50;;
10493;SDS011;5294;49.410;8.698;2023-01-29T15:32:46;14.30;;;12.93;;
10493;SDS011;5294;49.410;8.698;2023-01-29T15:35:35;14.40;;;13.10;;
10493;SDS011;5294;49.410;8.698;2023-01-29T15:38:06;15.00;;;13.60;;
10493;SDS011;5294;49.410;8.698;2023-01-29T15:40:38;14.90;;;13.50;;
10493;SDS011;5294;49.410;8.698;2023-01-29T15:43:21;15.40;;;13.93;;
10493;SDS011;5294;49.410;8.698;2023-01-29T15:45:52;14.67;;;13.30;;
10493;SDS011;5294;49.410;8.698;2023-01-29T15:48:19;15.57;;;14.03;;
10493;SDS011;5294;49.410;8.698;2023-01-29T15:50:46;15.73;;;14.23;;
10493;SDS011;5294;49.410;8.698;2023-01-29T15:53:16;15.90;;;14.43;;
10493;SDS011;5294;49.410;8.698;2023-01-29T15:55:44;15.67;;;14.27;;
10493;SDS011;5294;49.410;8.698;2023-01-29T15:58:11;14.47;;;13.00;;
10493;SDS011;5294;49.410;8.698;2023-01-29T16:00:42;15.53;;;14.00;;
10493;SDS011;5294;49.410;8.698;2023-01-29T16:03:13;15.83;;;14.30;;
10493;SDS011;5294;49.410;8.698;2023-01-29T16:05:39;15.73;;;14.23;;
10493;SDS011;5294;49.410;8.698;2023-01-29T16:08:05;14.97;;;13.57;;
10493;SDS011;5294;49.410;8.698;2023-01-29T16:10:36;16.83;;;15.23;;
10493;SDS011;5294;49.410;8.698;2023-01-29T16:13:02;16.27;;;14.70;;
10493;SDS011;5294;49.410;8.698;2023-01-29T16:15:33;15.67;;;14.17;;
10493;SDS011;5294;49.410;8.698;2023-01-29T16:17:59;15.47;;;13.87;;
10493;SDS011;5294;49.410;8.698;2023-01-29T16:22:58;15.43;;;14.03;;
10493;SDS011;5294;49.410;8.698;2023-01-29T16:25:24;15.43;;;13.83;;
10493;SDS011;5294;49.410;8.698;2023-01-29T16:27:50;15.47;;;14.07;;
10493;SDS011;5294;49.410;8.698;2023-01-29T16:30:18;16.50;;;14.93;;
10493;SDS011;5294;49.410;8.698;2023-01-29T16:32:44;15.57;;;14.07;;
10493;SDS011;5294;49.410;8.698;2023-01-29T16:35:14;15.63;;;14.13;;
10493;SDS011;5294;49.410;8.698;2023-01-29T16:37:40;15.57;;;14.13;;
10493;SDS011;5294;49.410;8.698;2023-01-29T16:40:14;15.73;;;14.23;;
10493;SDS011;5294;49.410;8.698;2023-01-29T16:42:43;16.60;;;15.00;;
10493;SDS011;5294;49.410;8.698;2023-01-29T16:45:26;16.40;;;14.87;;
10493;SDS011;5294;49.410;8.698;2023-01-29T16:47:59;16.13;;;14.73;;
10493;SDS011;5294;49.410;8.698;2023-01-29T16:50:32;16.53;;;14.83;;
10493;SDS011;5294;49.410;8.698;2023-01-29T16:53:00;17.40;;;15.80;;
10493;SDS011;5294;49.410;8.698;2023-01-29T16:55:31;18.13;;;16.37;;
10493;SDS011;5294;49.410;8.698;2023-01-29T16:57:57;17.53;;;15.83;;
10493;SDS011;5294;49.410;8.698;2023-01-29T17:00:29;18.67;;;16.87;;
10493;SDS011;5294;49.410;8.698;2023-01-29T17:03:03;18.87;;;16.97;;
10493;SDS011;5294;49.410;8.698;2023-01-29T17:05:33;18.47;;;16.60;;
10493;SDS011;5294;49.410;8.698;2023-01-29T17:08:01;17.67;;;15.97;;
10493;SDS011;5294;49.410;8.698;2023-01-29T17:10:28;18.40;;;16.43;;
10493;SDS011;5294;49.410;8.698;2023-01-29T17:15:26;18.03;;;16.43;;
10493;SDS011;5294;49.410;8.698;2023-01-29T17:17:56;17.50;;;15.80;;
10493;SDS011;5294;49.410;8.698;2023-01-29T17:20:22;18.97;;;17.17;;
10493;SDS011;5294;49.410;8.698;2023-01-29T17:22:48;17.23;;;15.53;;
10493;SDS011;5294;49.410;8.698;2023-01-29T17:25:14;16.63;;;15.00;;
10493;SDS011;5294;49.410;8.698;2023-01-29T17:27:44;18.67;;;16.87;;
10493;SDS011;5294;49.410;8.698;2023-01-29T17:30:16;16.97;;;15.30;;
10493;SDS011;5294;49.410;8.698;2023-01-29T17:32:47;17.47;;;15.77;;
10493;SDS011;5294;49.410;8.698;2023-01-29T17:35:13;17.83;;;16.23;;
10493;SDS011;5294;49.410;8.698;2023-01-29T17:37:42;17.27;;;15.60;;
10493;SDS011;5294;49.410;8.698;2023-01-29T17:42:55;15.50;;;14.00;;
10493;SDS011;5294;49.410;8.698;2023-01-29T17:45:21;15.30;;;13.93;;
10493;SDS011;5294;49.410;8.698;2023-01-29T17:47:52;14.00;;;12.70;;
10493;SDS011;5294;49.410;8.698;2023-01-29T17:50:22;14.37;;;13.07;;
10493;SDS011;5294;49.410;8.698;2023-01-29T17:52:48;13.53;;;12.23;;
10493;SDS011;5294;49.410;8.698;2023-01-29T17:55:14;13.40;;;12.20;;
10493;SDS011;5294;49.410;8.698;2023-01-29T17:57:40;13.40;;;12.10;;
10493;SDS011;5294;49.410;8.698;2023-01-29T18:00:17;14.00;;;12.70;;
10493;SDS011;5294;49.410;8.698;2023-01-29T18:02:43;12.43;;;11.33;;
10493;SDS011;5294;49.410;8.698;2023-01-29T18:05:14;14.50;;;13.10;;
10493;SDS011;5294;49.410;8.698;2023-01-29T18:07:45;12.97;;;11.87;;
10493;SDS011;5294;49.410;8.698;2023-01-29T18:10:12;13.37;;;12.17;;